createdAt,value
2023-02-12T00:01:43.272Z,103125.34
2023-02-12T00:04:11.895Z,103121.88
2023-02-12T00:06:40.658Z,103127.06
2023-02-12T00:09:09.231Z,103133.25
2023-02-12T00:11:37.872Z,103124.44
2023-02-12T00:14:06.362Z,103123.56
2023-02-12T00:16:34.993Z,103135.84
2023-02-12T00:19:05.151Z,103127.13
2023-02-12T00:21:33.619Z,103126.22
2023-02-12T00:24:02.533Z,103134.13
2023-02-12T00:26:31.200Z,103129.75
2023-02-12T00:28:59.947Z,103136.81
2023-02-12T00:31:32.489Z,103135.94
2023-02-12T00:34:02.744Z,103135.88
2023-02-12T00:36:34.420Z,103125.34
2023-02-12T00:39:03.348Z,103127.13
2023-02-12T00:41:31.916Z,103135.06
2023-02-12T00:44:00.563Z,103126.28
2023-02-12T00:46:29.239Z,103126.41
2023-02-12T00:48:57.759Z,103133.44
2023-02-12T00:51:26.463Z,103127.34
2023-02-12T00:53:56.573Z,103127.34
2023-02-12T00:56:24.973Z,103130.91
2023-02-12T00:58:53.564Z,103123.03
2023-02-12T01:01:22.388Z,103120.44
2023-02-12T01:03:51.061Z,103116.09
2023-02-12T01:06:19.854Z,103121.38
2023-02-12T01:08:51.409Z,103108.22
2023-02-12T01:11:21.482Z,103110.03
2023-02-12T01:13:50.077Z,103103.94
2023-02-12T01:16:20.442Z,103106.56
2023-02-12T01:18:49.711Z,103106.56
2023-02-12T01:21:20.682Z,103106.56
2023-02-12T01:23:50.666Z,103091.69
2023-02-12T01:26:22.980Z,103101.63
2023-02-12T01:28:54.328Z,103092.88
2023-02-12T01:31:26.301Z,103089.31
2023-02-12T01:33:57.061Z,103086.66
2023-02-12T01:36:26.496Z,103090.19
2023-02-12T01:38:55.493Z,103084.16
2023-02-12T01:41:27.444Z,103089.44
2023-02-12T01:44:15.629Z,103085.03
2023-02-12T01:46:46.086Z,103081.53
2023-02-12T01:49:18.681Z,103079.78
2023-02-12T01:51:48.904Z,103073.72
2023-02-12T01:54:21.270Z,103074.63
2023-02-12T01:56:51.361Z,103072.00
2023-02-12T01:59:22.247Z,103065.88
2023-02-12T02:01:51.500Z,103064.97
2023-02-12T02:04:26.792Z,103059.72
2023-02-12T02:06:59.700Z,103058.91
2023-02-12T02:09:30.075Z,103067.66
2023-02-12T02:12:18.054Z,103055.47
2023-02-12T02:14:48.944Z,103058.00
2023-02-12T02:17:48.595Z,103054.44
2023-02-12T02:20:49.437Z,103055.28
2023-02-12T02:23:36.178Z,103049.09
2023-02-12T02:26:36.765Z,103055.16
2023-02-12T02:29:32.972Z,103053.31
2023-02-12T02:32:08.253Z,103049.81
2023-02-12T02:34:49.360Z,103053.25
2023-02-12T02:37:21.219Z,103047.84
2023-02-12T02:39:54.925Z,103052.31
2023-02-12T02:42:33.063Z,103058.44
2023-02-12T02:45:06.363Z,103056.66
2023-02-12T02:47:41.381Z,103050.47
2023-02-12T02:50:16.409Z,103053.09
2023-02-12T02:52:51.025Z,103058.09
2023-02-12T02:55:24.067Z,103058.19
2023-02-12T02:57:58.994Z,103060.81
2023-02-12T03:00:36.266Z,103065.22
2023-02-12T03:03:12.605Z,103058.25
2023-02-12T03:05:46.812Z,103056.59
2023-02-12T03:08:24.443Z,103048.69
2023-02-12T03:10:58.066Z,103048.66
2023-02-12T03:13:34.127Z,103047.84
2023-02-12T03:16:08.690Z,103044.34
2023-02-12T03:18:44.312Z,103041.66
2023-02-12T03:21:17.327Z,103043.44
2023-02-12T03:23:54.312Z,103034.63
2023-02-12T03:26:26.542Z,103033.50
2023-02-12T03:28:55.264Z,103036.88
2023-02-12T03:31:33.177Z,103035.19
2023-02-12T03:34:11.012Z,103032.56
2023-02-12T03:36:48.286Z,103036.09
2023-02-12T03:39:27.128Z,103029.91
2023-02-12T03:42:03.979Z,103029.94
2023-02-12T03:44:49.193Z,103021.16
2023-02-12T03:47:27.361Z,103023.81
2023-02-12T03:50:05.198Z,103015.84
2023-02-12T03:52:34.417Z,103015.06
2023-02-12T03:55:04.188Z,103020.25
2023-02-12T03:57:36.569Z,103016.72
2023-02-12T04:00:11.447Z,103017.50
2023-02-12T04:02:40.181Z,103014.09
2023-02-12T04:05:18.248Z,103014.13
2023-02-12T04:07:47.011Z,103012.31
2023-02-12T04:10:16.412Z,103016.72
2023-02-12T04:12:54.386Z,103014.03
2023-02-12T04:15:45.082Z,103016.66
2023-02-12T04:18:20.360Z,103013.19
2023-02-12T04:20:59.821Z,103012.31
2023-02-12T04:23:46.111Z,103018.56
2023-02-12T04:26:25.034Z,103010.56
2023-02-12T04:29:10.020Z,103015.91
2023-02-12T04:31:47.820Z,103013.34
2023-02-12T04:34:21.908Z,103012.41
2023-02-12T04:36:58.361Z,103013.28
2023-02-12T04:39:31.700Z,103015.13
2023-02-12T04:42:01.461Z,103023.09
2023-02-12T04:44:32.834Z,103021.31
2023-02-12T04:47:02.047Z,103019.59
2023-02-12T04:49:30.864Z,103027.50
2023-02-12T04:52:01.017Z,103029.22
2023-02-12T04:54:29.615Z,103030.19
2023-02-12T04:56:59.475Z,103026.66
2023-02-12T04:59:28.284Z,103032.81
2023-02-12T05:01:56.595Z,103033.69
2023-02-12T05:04:25.198Z,103034.59
2023-02-12T05:06:53.779Z,103032.84
2023-02-12T05:09:24.095Z,103041.66
2023-02-12T05:11:52.661Z,103051.16
2023-02-12T05:14:21.455Z,103037.97
2023-02-12T05:16:50.050Z,103042.38
2023-02-12T05:19:18.819Z,103041.53
2023-02-12T05:21:47.449Z,103039.75
2023-02-12T05:24:16.307Z,103039.72
2023-02-12T05:26:46.367Z,103045.13
2023-02-12T05:29:14.887Z,103047.78
2023-02-12T05:31:43.561Z,103044.34
2023-02-12T05:34:13.784Z,103043.50
2023-02-12T05:36:42.568Z,103040.88
2023-02-12T05:39:12.853Z,103040.94
2023-02-12T05:41:41.376Z,103034.81
2023-02-12T05:44:12.859Z,103045.28
2023-02-12T05:46:41.680Z,103035.69
2023-02-12T05:49:11.241Z,103040.09
2023-02-12T05:51:40.548Z,103043.56
2023-02-12T05:54:09.276Z,103037.50
2023-02-12T05:56:43.408Z,103031.28
2023-02-12T05:59:18.055Z,103039.16
2023-02-12T06:01:48.152Z,103033.03
2023-02-12T06:04:18.985Z,103035.63
2023-02-12T06:06:47.833Z,103033.97
2023-02-12T06:09:17.143Z,103035.69
2023-02-12T06:11:45.879Z,103034.81
2023-02-12T06:14:19.440Z,103033.03
2023-02-12T06:16:49.316Z,103032.19
2023-02-12T06:19:18.161Z,103039.22
2023-02-12T06:21:46.974Z,103029.59
2023-02-12T06:24:17.597Z,103024.28
2023-02-12T06:26:47.290Z,103017.31
2023-02-12T06:29:17.341Z,103013.84
2023-02-12T06:31:47.804Z,103015.66
2023-02-12T06:34:18.367Z,103011.25
2023-02-12T06:36:48.639Z,103019.22
2023-02-12T06:39:18.963Z,103009.56
2023-02-12T06:41:47.900Z,103018.34
2023-02-12T06:44:18.129Z,103018.34
2023-02-12T06:46:47.041Z,103015.75
2023-02-12T06:49:17.003Z,103014.81
2023-02-12T06:51:45.405Z,103008.69
2023-02-12T06:54:16.796Z,103005.22
2023-02-12T06:56:45.882Z,103011.97
2023-02-12T06:59:16.854Z,102999.81
2023-02-12T07:01:47.125Z,103006.03
2023-02-12T07:04:16.045Z,103000.53
2023-02-12T07:06:45.074Z,103001.41
2023-02-12T07:09:13.610Z,103004.16
2023-02-12T07:11:42.285Z,103006.84
2023-02-12T07:14:16.063Z,103003.38
2023-02-12T07:16:44.790Z,103016.53
2023-02-12T07:19:17.070Z,103017.47
2023-02-12T07:21:45.739Z,103011.34
2023-02-12T07:24:18.650Z,103014.81
2023-02-12T07:26:47.353Z,103020.19
2023-02-12T07:29:16.166Z,103020.97
2023-02-12T07:31:45.325Z,103021.97
2023-02-12T07:34:15.672Z,103025.59
2023-02-12T07:36:44.386Z,103028.25
2023-02-12T07:39:14.881Z,103036.16
2023-02-12T07:41:46.194Z,103041.41
2023-02-12T07:44:15.109Z,103038.75
2023-02-12T07:46:48.144Z,103038.72
2023-02-12T07:49:20.023Z,103047.44
2023-02-12T07:51:49.297Z,103042.19
2023-02-12T07:54:18.357Z,103046.53
2023-02-12T07:56:48.144Z,103046.53
2023-02-12T07:59:18.957Z,103053.50
2023-02-12T08:01:49.234Z,103047.50
2023-02-12T08:04:21.373Z,103053.63
2023-02-12T08:06:52.295Z,103053.59
2023-02-12T08:09:23.798Z,103059.69
2023-02-12T08:11:52.813Z,103060.63
2023-02-12T08:14:24.316Z,103066.72
2023-02-12T08:16:53.570Z,103065.88
2023-02-12T08:19:26.409Z,103060.59
2023-02-12T08:21:57.135Z,103071.06
2023-02-12T08:24:26.423Z,103074.50
2023-02-12T08:26:55.437Z,103069.22
2023-02-12T08:29:26.222Z,103058.63
2023-02-12T08:31:58.591Z,103063.97
2023-02-12T08:34:30.852Z,103075.38
2023-02-12T08:37:00.216Z,103079.75
2023-02-12T08:39:30.741Z,103079.66
2023-02-12T08:42:00.867Z,103076.22
2023-02-12T08:44:29.592Z,103070.88
2023-02-12T08:46:58.249Z,103072.53
2023-02-12T08:49:30.429Z,103069.94
2023-02-12T08:52:02.169Z,103076.94
2023-02-12T08:54:33.033Z,103060.22
2023-02-12T08:57:03.939Z,103068.97
2023-02-12T09:00:03.366Z,103067.19
2023-02-12T09:02:33.810Z,103063.72
2023-02-12T09:05:04.018Z,103065.38
2023-02-12T09:07:32.636Z,103067.84
2023-02-12T09:10:01.220Z,103067.06
2023-02-12T09:12:30.134Z,103065.22
2023-02-12T09:14:59.133Z,103064.38
2023-02-12T09:17:27.841Z,103064.19
2023-02-12T09:19:56.779Z,103067.78
2023-02-12T09:22:26.935Z,103065.94
2023-02-12T09:24:55.983Z,103064.16
2023-02-12T09:27:24.551Z,103057.94
2023-02-12T09:29:53.245Z,103048.25
2023-02-12T09:32:21.686Z,103044.63
2023-02-12T09:34:50.294Z,103049.78
2023-02-12T09:37:18.889Z,103041.78
2023-02-12T09:39:51.144Z,103033.69
2023-02-12T09:42:33.031Z,103031.84
2023-02-12T09:45:11.880Z,103038.81
2023-02-12T09:47:45.753Z,103031.75
2023-02-12T09:50:28.673Z,103021.06
2023-02-12T09:52:59.527Z,103018.50
2023-02-12T09:55:32.411Z,103014.81
2023-02-12T09:58:05.504Z,103008.59
2023-02-12T10:00:34.329Z,103013.72
2023-02-12T10:03:05.823Z,103010.81
2023-02-12T10:05:40.399Z,103010.44
2023-02-12T10:08:43.122Z,103010.25
2023-02-12T10:11:37.666Z,103013.63
2023-02-12T10:14:29.164Z,103007.50
2023-02-12T10:17:05.688Z,103009.38
2023-02-12T10:19:53.018Z,103009.28
2023-02-12T10:22:31.189Z,103000.66
2023-02-12T10:25:10.665Z,103005.00
2023-02-12T10:27:48.546Z,103007.19
2023-02-12T10:30:23.247Z,103001.59
2023-02-12T10:32:56.363Z,102992.91
2023-02-12T10:35:26.758Z,102996.88
2023-02-12T10:38:00.094Z,102995.88
2023-02-12T10:40:34.815Z,102994.63
2023-02-12T10:43:05.270Z,102993.50
2023-02-12T10:45:36.061Z,102988.97
2023-02-12T10:48:10.291Z,102985.22
2023-02-12T10:50:51.524Z,102982.50
2023-02-12T10:53:24.050Z,102989.50
2023-02-12T10:56:12.006Z,102988.06
2023-02-12T10:58:44.677Z,102990.16
2023-02-12T11:01:22.420Z,102983.50
2023-02-12T11:03:50.851Z,102979.53
2023-02-12T11:06:22.298Z,102976.13
2023-02-12T11:08:51.952Z,102973.59
2023-02-12T11:11:27.157Z,102965.63
2023-02-12T11:14:00.128Z,102963.84
2023-02-12T11:16:32.052Z,102961.38
2023-02-12T11:19:04.928Z,102970.06
2023-02-12T11:21:34.442Z,102974.69
2023-02-12T11:24:38.836Z,102959.31
2023-02-12T11:27:25.201Z,102963.09
2023-02-12T11:30:18.680Z,102956.19
2023-02-12T11:32:49.944Z,102952.16
2023-02-12T11:35:25.967Z,102953.97
2023-02-12T11:37:57.696Z,102950.91
2023-02-12T11:40:29.141Z,102943.97
2023-02-12T11:43:01.108Z,102943.75
2023-02-12T11:45:35.815Z,102952.03
2023-02-12T11:48:12.267Z,102936.25
2023-02-12T11:50:43.643Z,102921.78
2023-02-12T11:53:23.503Z,102923.50
2023-02-12T11:56:01.922Z,102915.91
2023-02-12T11:58:32.483Z,102918.44
2023-02-12T12:01:09.992Z,102920.09
2023-02-12T12:03:46.735Z,102914.50
2023-02-12T12:06:29.569Z,102908.31
2023-02-12T12:09:04.591Z,102905.03
2023-02-12T12:11:42.797Z,102902.38
2023-02-12T12:14:19.525Z,102891.94
2023-02-12T12:17:15.022Z,102897.13
2023-02-12T12:19:55.218Z,102887.56
2023-02-12T12:22:38.428Z,102876.16
2023-02-12T12:25:14.948Z,102884.13
2023-02-12T12:28:05.933Z,102875.38
2023-02-12T12:30:55.399Z,102872.81
2023-02-12T12:33:35.313Z,102854.84
2023-02-12T12:36:32.828Z,102852.03
2023-02-12T12:39:09.094Z,102841.44
2023-02-12T12:41:55.398Z,102850.50
2023-02-12T12:44:33.141Z,102848.13
2023-02-12T12:47:16.660Z,102841.97
2023-02-12T12:50:10.882Z,102842.22
2023-02-12T12:52:56.034Z,102840.63
2023-02-12T12:55:54.672Z,102834.53
2023-02-12T12:58:36.005Z,102837.41
2023-02-12T13:01:30.404Z,102828.25
2023-02-12T13:04:32.899Z,102831.78
2023-02-12T13:07:29.130Z,102823.03
2023-02-12T13:10:09.316Z,102816.63
2023-02-12T13:12:57.248Z,102820.38
2023-02-12T13:15:34.814Z,102817.84
2023-02-12T13:18:15.171Z,102813.63
2023-02-12T13:20:53.210Z,102819.31
2023-02-12T13:23:33.710Z,102824.00
2023-02-12T13:26:13.549Z,102817.25
2023-02-12T13:28:45.356Z,102819.78
2023-02-12T13:31:32.673Z,102819.41
2023-02-12T13:34:05.841Z,102822.75
2023-02-12T13:36:37.793Z,102814.22
2023-02-12T13:39:17.507Z,102811.72
2023-02-12T13:41:56.241Z,102816.50
2023-02-12T13:44:34.456Z,102811.25
2023-02-12T13:47:13.168Z,102807.75
2023-02-12T13:49:51.349Z,102801.25
2023-02-12T13:52:30.687Z,102808.84
2023-02-12T13:55:21.524Z,102806.91
2023-02-12T13:58:35.208Z,102807.19
2023-02-12T14:01:08.019Z,102812.34
2023-02-12T14:03:39.289Z,102804.47
2023-02-12T14:06:14.939Z,102800.66
2023-02-12T14:08:48.221Z,102804.47
2023-02-12T14:11:20.549Z,102803.53
2023-02-12T14:13:54.658Z,102796.47
2023-02-12T14:16:40.174Z,102796.78
2023-02-12T14:19:39.870Z,102796.28
2023-02-12T14:22:58.080Z,102793.25
2023-02-12T14:25:46.159Z,102785.91
2023-02-12T14:28:29.212Z,102787.88
2023-02-12T14:31:30.613Z,102786.19
2023-02-12T14:34:32.311Z,102782.84
2023-02-12T14:37:20.452Z,102792.75
2023-02-12T14:39:49.765Z,102787.38
2023-02-12T14:42:56.481Z,102795.66
2023-02-12T14:45:37.880Z,102781.94
2023-02-12T14:48:07.454Z,102776.91
2023-02-12T14:50:42.731Z,102779.34
2023-02-12T14:53:32.396Z,102775.50
2023-02-12T14:56:02.553Z,102775.16
2023-02-12T14:58:37.507Z,102772.34
2023-02-12T15:01:09.724Z,102775.00
2023-02-12T15:03:44.417Z,102772.88
2023-02-12T15:06:18.688Z,102774.16
2023-02-12T15:08:53.655Z,102770.72
2023-02-12T15:11:30.134Z,102765.69
2023-02-12T15:14:03.790Z,102773.94
2023-02-12T15:16:43.919Z,102775.19
2023-02-12T15:19:24.647Z,102774.75
2023-02-12T15:21:55.546Z,102770.31
2023-02-12T15:24:26.788Z,102772.84
2023-02-12T15:26:57.914Z,102780.28
2023-02-12T15:29:33.264Z,102770.47
2023-02-12T15:32:07.088Z,102780.19
2023-02-12T15:34:40.355Z,102779.13
2023-02-12T15:37:13.204Z,102780.78
2023-02-12T15:39:45.033Z,102777.97
2023-02-12T15:42:29.092Z,102774.16
2023-02-12T15:45:18.163Z,102776.69
2023-02-12T15:47:59.319Z,102779.19
2023-02-12T15:50:29.207Z,102783.38
2023-02-12T15:52:58.435Z,102780.16
2023-02-12T15:55:31.004Z,102773.28
2023-02-12T15:58:02.839Z,102773.69
2023-02-12T16:00:39.020Z,102780.44
2023-02-12T16:03:21.625Z,102775.25
2023-02-12T16:05:51.083Z,102776.97
2023-02-12T16:08:23.114Z,102783.13
2023-02-12T16:10:55.180Z,102780.28
2023-02-12T16:13:33.834Z,102777.69
2023-02-12T16:16:08.651Z,102772.31
2023-02-12T16:18:38.926Z,102779.91
2023-02-12T16:21:13.781Z,102770.22
2023-02-12T16:23:44.911Z,102769.72
2023-02-12T16:26:19.711Z,102776.78
2023-02-12T16:28:49.981Z,102784.94
2023-02-12T16:31:19.689Z,102780.00
2023-02-12T16:33:54.284Z,102785.38
2023-02-12T16:36:33.895Z,102782.06
2023-02-12T16:39:05.834Z,102774.53
2023-02-12T16:41:35.371Z,102769.84
2023-02-12T16:44:29.794Z,102757.50
2023-02-12T16:47:00.874Z,102771.06
2023-02-12T16:49:31.027Z,102756.28
2023-02-12T16:52:23.714Z,102765.91
2023-02-12T16:54:52.011Z,102761.50
2023-02-12T16:57:20.656Z,102758.97
2023-02-12T16:59:49.300Z,102759.97
2023-02-12T17:02:17.921Z,102760.75
2023-02-12T17:04:47.900Z,102758.84
2023-02-12T17:07:28.425Z,102756.41
2023-02-12T17:09:57.206Z,102752.97
2023-02-12T17:12:25.914Z,102763.25
2023-02-12T17:14:56.097Z,102766.91
2023-02-12T17:17:24.704Z,102772.06
2023-02-12T17:19:54.725Z,102773.00
2023-02-12T17:22:27.834Z,102786.06
2023-02-12T17:24:56.800Z,102786.53
2023-02-12T17:27:25.880Z,102778.28
2023-02-12T17:29:54.485Z,102779.31
2023-02-12T17:32:25.019Z,102782.31
2023-02-12T17:34:55.064Z,102776.19
2023-02-12T17:37:25.763Z,102781.16
2023-02-12T17:39:56.244Z,102787.38
2023-02-12T17:42:24.859Z,102787.38
2023-02-12T17:44:54.562Z,102787.59
2023-02-12T17:47:23.148Z,102789.56
2023-02-12T17:49:51.700Z,102791.34
2023-02-12T17:52:21.898Z,102787.38
2023-02-12T17:54:50.347Z,102786.63
2023-02-12T17:57:19.211Z,102779.84
2023-02-12T17:59:47.919Z,102781.03
2023-02-12T18:02:16.777Z,102782.00
2023-02-12T18:04:45.496Z,102783.88
2023-02-12T18:07:14.227Z,102783.03
2023-02-12T18:09:44.275Z,102788.44
2023-02-12T18:12:12.892Z,102784.16
2023-02-12T18:14:41.434Z,102789.53
2023-02-12T18:17:10.255Z,102789.78
2023-02-12T18:19:38.674Z,102783.34
2023-02-12T18:22:07.160Z,102788.09
2023-02-12T18:24:36.088Z,102780.28
2023-02-12T18:27:06.465Z,102778.53
2023-02-12T18:29:34.989Z,102780.56
2023-02-12T18:32:03.540Z,102780.56
2023-02-12T18:34:31.985Z,102780.41
2023-02-12T18:37:00.655Z,102777.78
2023-02-12T18:39:30.366Z,102774.31
2023-02-12T18:41:58.953Z,102775.38
2023-02-12T18:44:29.111Z,102781.59
2023-02-12T18:47:00.425Z,102785.13
2023-02-12T18:49:30.770Z,102785.97
2023-02-12T18:51:59.688Z,102787.84
2023-02-12T18:54:28.331Z,102788.78
2023-02-12T18:56:56.909Z,102796.78
2023-02-12T18:59:27.250Z,102788.06
2023-02-12T19:01:57.891Z,102787.44
2023-02-12T19:04:28.047Z,102789.25
2023-02-12T19:06:57.451Z,102775.38
2023-02-12T19:09:27.376Z,102782.50
2023-02-12T19:11:58.645Z,102789.63
2023-02-12T19:14:28.199Z,102781.16
2023-02-12T19:16:58.105Z,102775.97
2023-02-12T19:19:28.182Z,102777.78
2023-02-12T19:21:56.822Z,102772.63
2023-02-12T19:24:40.941Z,102781.28
2023-02-12T19:27:14.316Z,102777.16
2023-02-12T19:29:42.993Z,102778.00
2023-02-12T19:32:13.149Z,102772.47
2023-02-12T19:34:41.880Z,102764.94
2023-02-12T19:37:12.024Z,102758.72
2023-02-12T19:39:41.277Z,102757.03
2023-02-12T19:42:10.774Z,102750.22
2023-02-12T19:44:41.037Z,102744.03
2023-02-12T19:47:11.065Z,102756.38
2023-02-12T19:49:41.807Z,102758.09
2023-02-12T19:52:10.267Z,102744.16
2023-02-12T19:54:38.858Z,102761.75
2023-02-12T19:57:09.381Z,102756.50
2023-02-12T19:59:38.735Z,102746.00
2023-02-12T20:02:07.380Z,102737.19
2023-02-12T20:04:36.196Z,102741.63
2023-02-12T20:07:08.402Z,102734.56
2023-02-12T20:09:37.747Z,102733.06
2023-02-12T20:12:07.880Z,102736.50
2023-02-12T20:14:37.128Z,102731.22
2023-02-12T20:17:07.340Z,102726.91
2023-02-12T20:19:38.272Z,102725.19
2023-02-12T20:22:08.481Z,102724.41
2023-02-12T20:24:37.109Z,102725.31
2023-02-12T20:27:06.120Z,102729.00
2023-02-12T20:29:34.405Z,102726.44
2023-02-12T20:32:05.702Z,102721.31
2023-02-12T20:34:48.905Z,102726.56
2023-02-12T20:37:23.705Z,102724.00
2023-02-12T20:39:52.187Z,102720.41
2023-02-12T20:42:20.621Z,102716.19
2023-02-12T20:44:49.180Z,102719.63
2023-02-12T20:47:18.091Z,102717.84
2023-02-12T20:49:46.756Z,102710.00
2023-02-12T20:52:15.508Z,102717.13
2023-02-12T20:54:47.902Z,102706.59
2023-02-12T20:57:16.899Z,102704.00
2023-02-12T20:59:46.033Z,102711.06
2023-02-12T21:02:14.447Z,102698.13
2023-02-12T21:04:42.791Z,102703.38
2023-02-12T21:07:11.512Z,102708.53
2023-02-12T21:09:39.979Z,102702.53
2023-02-12T21:12:10.064Z,102697.34
2023-02-12T21:14:38.742Z,102697.16
2023-02-12T21:17:07.715Z,102696.25
2023-02-12T21:19:37.171Z,102686.50
2023-02-12T21:22:05.750Z,102681.13
2023-02-12T21:24:34.489Z,102688.03
2023-02-12T21:27:03.304Z,102678.38
2023-02-12T21:29:34.056Z,102678.22
2023-02-12T21:32:02.543Z,102677.25
2023-02-12T21:34:31.549Z,102673.91
2023-02-12T21:37:00.209Z,102674.56
2023-02-12T21:39:29.843Z,102671.72
2023-02-12T21:42:00.423Z,102676.97
2023-02-12T21:44:29.578Z,102675.34
2023-02-12T21:47:00.417Z,102679.81
2023-02-12T21:49:29.217Z,102676.41
2023-02-12T21:52:02.616Z,102682.38
2023-02-12T21:54:32.164Z,102685.00
2023-02-12T21:57:02.065Z,102690.16
2023-02-12T21:59:32.370Z,102675.91
2023-02-12T22:02:03.235Z,102679.53
2023-02-12T22:04:31.982Z,102676.19
2023-02-12T22:07:03.765Z,102670.94
2023-02-12T22:09:33.000Z,102669.19
2023-02-12T22:12:01.852Z,102668.38
2023-02-12T22:14:30.573Z,102664.03
2023-02-12T22:16:59.501Z,102645.81
2023-02-12T22:19:29.789Z,102645.81
2023-02-12T22:22:00.154Z,102648.41
2023-02-12T22:24:28.757Z,102654.38
2023-02-12T22:26:57.470Z,102646.44
2023-02-12T22:29:26.103Z,102649.22
2023-02-12T22:31:55.022Z,102648.44
2023-02-12T22:34:23.842Z,102655.25
2023-02-12T22:36:53.810Z,102650.03
2023-02-12T22:39:22.714Z,102649.19
2023-02-12T22:41:51.262Z,102649.25
2023-02-12T22:44:21.309Z,102647.56
2023-02-12T22:46:50.762Z,102640.53
2023-02-12T22:49:19.386Z,102652.03
2023-02-12T22:51:48.234Z,102648.56
2023-02-12T22:54:20.067Z,102646.97
2023-02-12T22:56:51.559Z,102649.53
2023-02-12T22:59:20.676Z,102652.31
2023-02-12T23:01:49.150Z,102645.34
2023-02-12T23:04:18.797Z,102642.78
2023-02-12T23:06:47.609Z,102646.34
2023-02-12T23:09:19.753Z,102645.56
2023-02-12T23:11:48.927Z,102646.41
2023-02-12T23:14:18.186Z,102647.38
2023-02-12T23:16:47.864Z,102644.78
2023-02-12T23:19:17.210Z,102642.94
2023-02-12T23:21:45.760Z,102648.25
2023-02-12T23:24:16.188Z,102639.38
2023-02-12T23:26:46.681Z,102644.75
2023-02-12T23:29:15.422Z,102646.53
2023-02-12T23:31:49.842Z,102650.09
2023-02-12T23:34:18.606Z,102653.63
2023-02-12T23:36:48.583Z,102644.81
2023-02-12T23:39:17.519Z,102651.00
2023-02-12T23:41:48.084Z,102651.97
2023-02-12T23:44:16.743Z,102657.31
2023-02-12T23:46:45.406Z,102654.56
2023-02-12T23:49:14.055Z,102661.75
2023-02-12T23:51:42.734Z,102657.31
2023-02-12T23:54:11.880Z,102658.22
2023-02-12T23:56:42.421Z,102653.91
2023-02-12T23:59:12.682Z,102654.88
